sensor_id;sensor_type;location;lat;lon;timestamp;P1;durP1;ratioP1;P2;durP2;ratioP2
35540;SDS011;21650;48.840;9.162;2023-02-18T00:01:46;0.80;;;0.60;;
35540;SDS011;21650;48.840;9.162;2023-02-18T00:04:11;2.27;;;0.77;;
35540;SDS011;21650;48.840;9.162;2023-02-18T00:06:37;0.70;;;0.60;;
35540;SDS011;21650;48.840;9.162;2023-02-18T00:09:03;1.07;;;0.93;;
35540;SDS011;21650;48.840;9.162;2023-02-18T00:11:30;1.10;;;0.80;;
35540;SDS011;21650;48.840;9.162;2023-02-18T00:13:59;1.67;;;0.60;;
35540;SDS011;21650;48.840;9.162;2023-02-18T00:16:27;1.87;;;0.77;;
35540;SDS011;21650;48.840;9.162;2023-02-18T00:18:54;1.10;;;0.87;;
35540;SDS011;21650;48.840;9.162;2023-02-18T00:21:21;1.43;;;0.70;;
35540;SDS011;21650;48.840;9.162;2023-02-18T00:23:47;1.10;;;0.90;;
35540;SDS011;21650;48.840;9.162;2023-02-18T00:26:13;1.57;;;0.90;;
35540;SDS011;21650;48.840;9.162;2023-02-18T00:28:40;1.10;;;0.73;;
35540;SDS011;21650;48.840;9.162;2023-02-18T00:31:07;1.83;;;1.30;;
35540;SDS011;21650;48.840;9.162;2023-02-18T00:33:34;1.60;;;0.93;;
35540;SDS011;21650;48.840;9.162;2023-02-18T00:36:01;1.00;;;0.90;;
35540;SDS011;21650;48.840;9.162;2023-02-18T00:38:28;2.90;;;1.03;;
35540;SDS011;21650;48.840;9.162;2023-02-18T00:40:53;0.97;;;0.70;;
35540;SDS011;21650;48.840;9.162;2023-02-18T00:43:19;2.23;;;0.70;;
35540;SDS011;21650;48.840;9.162;2023-02-18T00:45:44;0.90;;;0.70;;
35540;SDS011;21650;48.840;9.162;2023-02-18T00:48:10;2.23;;;1.20;;
35540;SDS011;21650;48.840;9.162;2023-02-18T00:50:36;0.90;;;0.80;;
35540;SDS011;21650;48.840;9.162;2023-02-18T00:53:01;2.83;;;1.27;;
35540;SDS011;21650;48.840;9.162;2023-02-18T00:55:27;1.30;;;0.90;;
35540;SDS011;21650;48.840;9.162;2023-02-18T00:57:53;2.57;;;0.90;;
35540;SDS011;21650;48.840;9.162;2023-02-18T01:00:18;2.27;;;0.90;;
35540;SDS011;21650;48.840;9.162;2023-02-18T01:02:44;1.20;;;0.97;;
35540;SDS011;21650;48.840;9.162;2023-02-18T01:05:10;1.20;;;1.00;;
35540;SDS011;21650;48.840;9.162;2023-02-18T01:07:36;1.47;;;1.10;;
35540;SDS011;21650;48.840;9.162;2023-02-18T01:10:02;1.40;;;1.13;;
35540;SDS011;21650;48.840;9.162;2023-02-18T01:12:28;1.27;;;1.00;;
35540;SDS011;21650;48.840;9.162;2023-02-18T01:14:54;2.87;;;0.93;;
35540;SDS011;21650;48.840;9.162;2023-02-18T01:17:20;2.63;;;1.13;;
35540;SDS011;21650;48.840;9.162;2023-02-18T01:19:45;1.37;;;1.20;;
35540;SDS011;21650;48.840;9.162;2023-02-18T01:22:11;1.07;;;0.97;;
35540;SDS011;21650;48.840;9.162;2023-02-18T01:24:36;2.30;;;1.27;;
35540;SDS011;21650;48.840;9.162;2023-02-18T01:27:02;1.37;;;1.10;;
35540;SDS011;21650;48.840;9.162;2023-02-18T01:29:28;1.20;;;1.10;;
35540;SDS011;21650;48.840;9.162;2023-02-18T01:31:54;1.40;;;1.20;;
35540;SDS011;21650;48.840;9.162;2023-02-18T01:34:19;1.53;;;1.00;;
35540;SDS011;21650;48.840;9.162;2023-02-18T01:36:45;2.47;;;1.10;;
35540;SDS011;21650;48.840;9.162;2023-02-18T01:39:11;2.47;;;1.30;;
35540;SDS011;21650;48.840;9.162;2023-02-18T01:41:36;1.33;;;0.93;;
35540;SDS011;21650;48.840;9.162;2023-02-18T01:44:21;0.83;;;0.80;;
35540;SDS011;21650;48.840;9.162;2023-02-18T01:46:49;1.00;;;0.90;;
35540;SDS011;21650;48.840;9.162;2023-02-18T01:49:17;2.60;;;1.47;;
35540;SDS011;21650;48.840;9.162;2023-02-18T01:51:51;1.10;;;1.00;;
35540;SDS011;21650;48.840;9.162;2023-02-18T01:54:28;3.17;;;1.33;;
35540;SDS011;21650;48.840;9.162;2023-02-18T01:57:06;1.20;;;1.10;;
35540;SDS011;21650;48.840;9.162;2023-02-18T01:59:37;3.17;;;1.50;;
35540;SDS011;21650;48.840;9.162;2023-02-18T02:02:09;1.53;;;1.20;;
35540;SDS011;21650;48.840;9.162;2023-02-18T02:04:38;2.50;;;1.30;;
35540;SDS011;21650;48.840;9.162;2023-02-18T02:07:04;1.90;;;1.10;;
35540;SDS011;21650;48.840;9.162;2023-02-18T02:09:30;1.87;;;1.10;;
35540;SDS011;21650;48.840;9.162;2023-02-18T02:14:52;2.80;;;1.30;;
35540;SDS011;21650;48.840;9.162;2023-02-18T02:17:44;2.40;;;1.53;;
35540;SDS011;21650;48.840;9.162;2023-02-18T02:40:37;2.20;;;1.53;;
35540;SDS011;21650;48.840;9.162;2023-02-18T02:46:20;1.30;;;1.17;;
35540;SDS011;21650;48.840;9.162;2023-02-18T02:49:02;2.03;;;1.63;;
35540;SDS011;21650;48.840;9.162;2023-02-18T02:51:49;2.37;;;1.60;;
35540;SDS011;21650;48.840;9.162;2023-02-18T02:54:25;1.70;;;1.40;;
35540;SDS011;21650;48.840;9.162;2023-02-18T02:57:05;2.33;;;1.83;;
35540;SDS011;21650;48.840;9.162;2023-02-18T02:59:38;4.60;;;1.87;;
35540;SDS011;21650;48.840;9.162;2023-02-18T03:04:53;1.20;;;1.10;;
35540;SDS011;21650;48.840;9.162;2023-02-18T03:10:30;1.53;;;1.40;;
35540;SDS011;21650;48.840;9.162;2023-02-18T03:16:25;1.70;;;1.50;;
35540;SDS011;21650;48.840;9.162;2023-02-18T03:22:00;2.10;;;1.53;;
35540;SDS011;21650;48.840;9.162;2023-02-18T03:24:49;1.67;;;1.23;;
35540;SDS011;21650;48.840;9.162;2023-02-18T03:30:00;2.43;;;1.70;;
35540;SDS011;21650;48.840;9.162;2023-02-18T03:32:48;2.53;;;1.50;;
35540;SDS011;21650;48.840;9.162;2023-02-18T03:35:20;1.40;;;1.30;;
35540;SDS011;21650;48.840;9.162;2023-02-18T03:38:05;3.60;;;1.47;;
35540;SDS011;21650;48.840;9.162;2023-02-18T03:40:38;3.10;;;1.90;;
35540;SDS011;21650;48.840;9.162;2023-02-18T03:43:04;3.37;;;1.80;;
35540;SDS011;21650;48.840;9.162;2023-02-18T03:45:30;1.97;;;1.50;;
35540;SDS011;21650;48.840;9.162;2023-02-18T03:47:55;2.47;;;1.93;;
35540;SDS011;21650;48.840;9.162;2023-02-18T03:50:22;2.50;;;1.53;;
35540;SDS011;21650;48.840;9.162;2023-02-18T03:52:47;2.07;;;1.40;;
35540;SDS011;21650;48.840;9.162;2023-02-18T03:55:13;2.83;;;1.70;;
35540;SDS011;21650;48.840;9.162;2023-02-18T03:57:38;3.17;;;1.60;;
35540;SDS011;21650;48.840;9.162;2023-02-18T04:00:04;1.63;;;1.37;;
35540;SDS011;21650;48.840;9.162;2023-02-18T04:02:31;2.00;;;1.60;;
35540;SDS011;21650;48.840;9.162;2023-02-18T04:04:57;2.30;;;1.60;;
35540;SDS011;21650;48.840;9.162;2023-02-18T04:07:23;1.70;;;1.50;;
35540;SDS011;21650;48.840;9.162;2023-02-18T04:09:49;4.50;;;2.37;;
35540;SDS011;21650;48.840;9.162;2023-02-18T04:12:14;2.47;;;2.00;;
35540;SDS011;21650;48.840;9.162;2023-02-18T04:14:40;2.57;;;1.80;;
35540;SDS011;21650;48.840;9.162;2023-02-18T04:17:05;2.57;;;1.70;;
35540;SDS011;21650;48.840;9.162;2023-02-18T04:19:31;1.80;;;1.60;;
35540;SDS011;21650;48.840;9.162;2023-02-18T04:21:57;2.10;;;1.50;;
35540;SDS011;21650;48.840;9.162;2023-02-18T04:24:22;2.40;;;1.87;;
35540;SDS011;21650;48.840;9.162;2023-02-18T04:26:48;3.47;;;1.70;;
35540;SDS011;21650;48.840;9.162;2023-02-18T04:29:13;1.90;;;1.50;;
35540;SDS011;21650;48.840;9.162;2023-02-18T04:31:39;2.90;;;1.83;;
35540;SDS011;21650;48.840;9.162;2023-02-18T04:34:04;3.00;;;1.90;;
35540;SDS011;21650;48.840;9.162;2023-02-18T04:36:30;1.97;;;1.57;;
35540;SDS011;21650;48.840;9.162;2023-02-18T04:38:56;1.93;;;1.60;;
35540;SDS011;21650;48.840;9.162;2023-02-18T04:41:21;1.87;;;1.70;;
35540;SDS011;21650;48.840;9.162;2023-02-18T04:43:47;2.33;;;2.13;;
35540;SDS011;21650;48.840;9.162;2023-02-18T04:46:12;3.20;;;1.97;;
35540;SDS011;21650;48.840;9.162;2023-02-18T04:48:38;3.07;;;2.03;;
35540;SDS011;21650;48.840;9.162;2023-02-18T04:51:04;1.93;;;1.40;;
35540;SDS011;21650;48.840;9.162;2023-02-18T04:53:29;1.67;;;1.17;;
35540;SDS011;21650;48.840;9.162;2023-02-18T04:55:55;3.83;;;1.60;;
35540;SDS011;21650;48.840;9.162;2023-02-18T04:58:21;1.33;;;1.20;;
35540;SDS011;21650;48.840;9.162;2023-02-18T05:00:46;2.93;;;1.47;;
35540;SDS011;21650;48.840;9.162;2023-02-18T05:03:12;2.90;;;1.90;;
35540;SDS011;21650;48.840;9.162;2023-02-18T05:05:38;1.67;;;1.30;;
35540;SDS011;21650;48.840;9.162;2023-02-18T05:08:05;2.73;;;1.93;;
35540;SDS011;21650;48.840;9.162;2023-02-18T05:10:32;2.23;;;1.60;;
35540;SDS011;21650;48.840;9.162;2023-02-18T05:12:58;1.50;;;1.03;;
35540;SDS011;21650;48.840;9.162;2023-02-18T05:15:23;1.53;;;1.37;;
35540;SDS011;21650;48.840;9.162;2023-02-18T05:17:49;1.63;;;1.47;;
35540;SDS011;21650;48.840;9.162;2023-02-18T05:20:15;2.13;;;1.53;;
35540;SDS011;21650;48.840;9.162;2023-02-18T05:22:40;1.50;;;1.20;;
35540;SDS011;21650;48.840;9.162;2023-02-18T05:25:07;3.73;;;1.37;;
35540;SDS011;21650;48.840;9.162;2023-02-18T05:27:32;1.27;;;1.17;;
35540;SDS011;21650;48.840;9.162;2023-02-18T05:29:58;2.50;;;1.10;;
35540;SDS011;21650;48.840;9.162;2023-02-18T05:32:24;1.73;;;1.63;;
35540;SDS011;21650;48.840;9.162;2023-02-18T05:34:49;1.30;;;1.17;;
35540;SDS011;21650;48.840;9.162;2023-02-18T05:37:15;2.50;;;1.53;;
35540;SDS011;21650;48.840;9.162;2023-02-18T05:39:42;2.20;;;1.43;;
35540;SDS011;21650;48.840;9.162;2023-02-18T05:42:08;1.40;;;1.30;;
35540;SDS011;21650;48.840;9.162;2023-02-18T05:44:34;1.70;;;1.23;;
35540;SDS011;21650;48.840;9.162;2023-02-18T05:47:00;2.20;;;1.23;;
35540;SDS011;21650;48.840;9.162;2023-02-18T05:49:31;3.43;;;1.43;;
35540;SDS011;21650;48.840;9.162;2023-02-18T05:51:57;1.53;;;1.40;;
35540;SDS011;21650;48.840;9.162;2023-02-18T05:54:24;2.23;;;1.63;;
35540;SDS011;21650;48.840;9.162;2023-02-18T05:56:50;1.63;;;1.33;;
35540;SDS011;21650;48.840;9.162;2023-02-18T05:59:16;2.50;;;1.43;;
35540;SDS011;21650;48.840;9.162;2023-02-18T06:01:42;1.57;;;1.30;;
35540;SDS011;21650;48.840;9.162;2023-02-18T06:04:08;1.70;;;1.50;;
35540;SDS011;21650;48.840;9.162;2023-02-18T06:06:34;2.57;;;1.10;;
35540;SDS011;21650;48.840;9.162;2023-02-18T06:09:00;2.20;;;1.53;;
35540;SDS011;21650;48.840;9.162;2023-02-18T06:11:25;1.97;;;1.30;;
35540;SDS011;21650;48.840;9.162;2023-02-18T06:13:51;1.27;;;1.10;;
35540;SDS011;21650;48.840;9.162;2023-02-18T06:16:16;1.50;;;0.93;;
35540;SDS011;21650;48.840;9.162;2023-02-18T06:18:42;1.17;;;0.93;;
35540;SDS011;21650;48.840;9.162;2023-02-18T06:21:08;1.40;;;1.23;;
35540;SDS011;21650;48.840;9.162;2023-02-18T06:23:33;1.83;;;1.03;;
35540;SDS011;21650;48.840;9.162;2023-02-18T06:25:59;2.30;;;1.73;;
35540;SDS011;21650;48.840;9.162;2023-02-18T06:28:24;1.40;;;1.20;;
35540;SDS011;21650;48.840;9.162;2023-02-18T06:30:50;1.20;;;1.10;;
35540;SDS011;21650;48.840;9.162;2023-02-18T06:33:16;1.20;;;1.10;;
35540;SDS011;21650;48.840;9.162;2023-02-18T06:35:41;3.40;;;1.20;;
35540;SDS011;21650;48.840;9.162;2023-02-18T06:38:16;1.93;;;1.50;;
35540;SDS011;21650;48.840;9.162;2023-02-18T06:40:41;2.40;;;1.00;;
35540;SDS011;21650;48.840;9.162;2023-02-18T06:43:07;2.23;;;1.27;;
35540;SDS011;21650;48.840;9.162;2023-02-18T06:45:32;1.30;;;1.20;;
35540;SDS011;21650;48.840;9.162;2023-02-18T06:47:58;2.10;;;1.30;;
35540;SDS011;21650;48.840;9.162;2023-02-18T06:50:24;1.80;;;1.40;;
35540;SDS011;21650;48.840;9.162;2023-02-18T06:52:49;1.90;;;1.30;;
35540;SDS011;21650;48.840;9.162;2023-02-18T06:55:15;1.83;;;1.10;;
35540;SDS011;21650;48.840;9.162;2023-02-18T06:57:40;2.33;;;1.37;;
35540;SDS011;21650;48.840;9.162;2023-02-18T07:00:06;1.40;;;1.20;;
35540;SDS011;21650;48.840;9.162;2023-02-18T07:02:32;1.13;;;1.03;;
35540;SDS011;21650;48.840;9.162;2023-02-18T07:04:58;2.03;;;1.30;;
35540;SDS011;21650;48.840;9.162;2023-02-18T07:07:23;2.67;;;1.50;;
35540;SDS011;21650;48.840;9.162;2023-02-18T07:09:49;1.60;;;1.37;;
35540;SDS011;21650;48.840;9.162;2023-02-18T07:12:15;4.23;;;1.60;;
35540;SDS011;21650;48.840;9.162;2023-02-18T07:14:40;1.63;;;1.10;;
35540;SDS011;21650;48.840;9.162;2023-02-18T07:17:06;1.50;;;1.33;;
35540;SDS011;21650;48.840;9.162;2023-02-18T07:19:31;2.67;;;1.30;;
35540;SDS011;21650;48.840;9.162;2023-02-18T07:21:57;2.50;;;1.43;;
35540;SDS011;21650;48.840;9.162;2023-02-18T07:24:23;1.57;;;1.37;;
35540;SDS011;21650;48.840;9.162;2023-02-18T07:26:48;1.63;;;1.10;;
35540;SDS011;21650;48.840;9.162;2023-02-18T07:29:14;1.03;;;0.87;;
35540;SDS011;21650;48.840;9.162;2023-02-18T07:31:39;2.17;;;1.20;;
35540;SDS011;21650;48.840;9.162;2023-02-18T07:34:05;1.53;;;1.13;;
35540;SDS011;21650;48.840;9.162;2023-02-18T07:36:31;1.67;;;1.10;;
35540;SDS011;21650;48.840;9.162;2023-02-18T07:38:56;2.53;;;1.50;;
35540;SDS011;21650;48.840;9.162;2023-02-18T07:41:22;1.73;;;1.30;;
35540;SDS011;21650;48.840;9.162;2023-02-18T07:43:48;1.43;;;1.23;;
35540;SDS011;21650;48.840;9.162;2023-02-18T07:46:13;2.70;;;1.40;;
35540;SDS011;21650;48.840;9.162;2023-02-18T07:48:39;1.50;;;1.33;;
35540;SDS011;21650;48.840;9.162;2023-02-18T07:51:09;2.33;;;1.40;;
35540;SDS011;21650;48.840;9.162;2023-02-18T07:53:36;4.47;;;1.57;;
35540;SDS011;21650;48.840;9.162;2023-02-18T07:56:02;3.47;;;1.30;;
35540;SDS011;21650;48.840;9.162;2023-02-18T07:58:30;1.87;;;1.47;;
35540;SDS011;21650;48.840;9.162;2023-02-18T08:00:57;1.60;;;1.37;;
35540;SDS011;21650;48.840;9.162;2023-02-18T08:03:25;1.70;;;1.40;;
35540;SDS011;21650;48.840;9.162;2023-02-18T08:05:53;2.27;;;1.40;;
35540;SDS011;21650;48.840;9.162;2023-02-18T08:08:20;1.37;;;1.27;;
35540;SDS011;21650;48.840;9.162;2023-02-18T08:10:48;1.20;;;1.10;;
35540;SDS011;21650;48.840;9.162;2023-02-18T08:13:15;3.97;;;1.57;;
35540;SDS011;21650;48.840;9.162;2023-02-18T08:15:40;1.60;;;1.47;;
35540;SDS011;21650;48.840;9.162;2023-02-18T08:18:07;3.37;;;1.60;;
35540;SDS011;21650;48.840;9.162;2023-02-18T08:20:38;2.83;;;1.53;;
35540;SDS011;21650;48.840;9.162;2023-02-18T08:23:04;1.80;;;1.43;;
35540;SDS011;21650;48.840;9.162;2023-02-18T08:25:30;2.43;;;1.60;;
35540;SDS011;21650;48.840;9.162;2023-02-18T08:27:56;2.07;;;1.57;;
35540;SDS011;21650;48.840;9.162;2023-02-18T08:30:22;2.13;;;1.50;;
35540;SDS011;21650;48.840;9.162;2023-02-18T08:32:47;2.60;;;1.43;;
35540;SDS011;21650;48.840;9.162;2023-02-18T08:35:13;2.87;;;1.30;;
35540;SDS011;21650;48.840;9.162;2023-02-18T08:37:39;1.50;;;1.00;;
35540;SDS011;21650;48.840;9.162;2023-02-18T08:40:05;1.50;;;1.40;;
35540;SDS011;21650;48.840;9.162;2023-02-18T08:42:31;2.83;;;1.60;;
35540;SDS011;21650;48.840;9.162;2023-02-18T08:44:57;2.07;;;1.20;;
35540;SDS011;21650;48.840;9.162;2023-02-18T08:47:23;1.63;;;1.13;;
35540;SDS011;21650;48.840;9.162;2023-02-18T08:49:48;2.50;;;1.43;;
35540;SDS011;21650;48.840;9.162;2023-02-18T08:52:14;2.50;;;1.10;;
35540;SDS011;21650;48.840;9.162;2023-02-18T08:54:39;3.20;;;1.47;;
35540;SDS011;21650;48.840;9.162;2023-02-18T08:57:05;2.00;;;1.27;;
35540;SDS011;21650;48.840;9.162;2023-02-18T08:59:31;2.43;;;1.20;;
35540;SDS011;21650;48.840;9.162;2023-02-18T09:01:56;2.30;;;1.53;;
35540;SDS011;21650;48.840;9.162;2023-02-18T09:04:22;2.03;;;1.43;;
35540;SDS011;21650;48.840;9.162;2023-02-18T09:06:48;0.93;;;0.90;;
35540;SDS011;21650;48.840;9.162;2023-02-18T09:09:14;4.30;;;1.27;;
35540;SDS011;21650;48.840;9.162;2023-02-18T09:11:40;1.37;;;0.93;;
35540;SDS011;21650;48.840;9.162;2023-02-18T09:14:07;1.27;;;1.00;;
35540;SDS011;21650;48.840;9.162;2023-02-18T09:16:32;1.70;;;1.00;;
35540;SDS011;21650;48.840;9.162;2023-02-18T09:18:58;3.17;;;1.20;;
35540;SDS011;21650;48.840;9.162;2023-02-18T09:21:24;1.10;;;0.90;;
35540;SDS011;21650;48.840;9.162;2023-02-18T09:23:50;1.77;;;1.27;;
35540;SDS011;21650;48.840;9.162;2023-02-18T09:26:17;1.33;;;1.03;;
35540;SDS011;21650;48.840;9.162;2023-02-18T09:28:49;1.80;;;1.40;;
35540;SDS011;21650;48.840;9.162;2023-02-18T09:31:17;2.70;;;0.80;;
35540;SDS011;21650;48.840;9.162;2023-02-18T09:33:46;1.47;;;0.83;;
35540;SDS011;21650;48.840;9.162;2023-02-18T09:36:14;1.77;;;1.10;;
35540;SDS011;21650;48.840;9.162;2023-02-18T09:38:41;0.90;;;0.80;;
35540;SDS011;21650;48.840;9.162;2023-02-18T09:41:08;4.23;;;1.17;;
35540;SDS011;21650;48.840;9.162;2023-02-18T09:43:40;1.97;;;1.00;;
35540;SDS011;21650;48.840;9.162;2023-02-18T09:46:19;1.90;;;1.20;;
35540;SDS011;21650;48.840;9.162;2023-02-18T09:48:48;1.47;;;0.90;;
35540;SDS011;21650;48.840;9.162;2023-02-18T09:51:15;1.20;;;1.10;;
35540;SDS011;21650;48.840;9.162;2023-02-18T09:53:42;1.70;;;0.87;;
35540;SDS011;21650;48.840;9.162;2023-02-18T09:56:10;1.10;;;0.83;;
35540;SDS011;21650;48.840;9.162;2023-02-18T09:58:38;1.73;;;1.00;;
35540;SDS011;21650;48.840;9.162;2023-02-18T10:01:17;1.73;;;0.97;;
35540;SDS011;21650;48.840;9.162;2023-02-18T10:03:47;3.07;;;1.23;;
35540;SDS011;21650;48.840;9.162;2023-02-18T10:08:53;1.30;;;1.10;;
35540;SDS011;21650;48.840;9.162;2023-02-18T10:11:23;1.20;;;0.90;;
35540;SDS011;21650;48.840;9.162;2023-02-18T10:13:53;4.50;;;1.20;;
35540;SDS011;21650;48.840;9.162;2023-02-18T10:16:19;3.00;;;1.30;;
35540;SDS011;21650;48.840;9.162;2023-02-18T10:18:48;3.87;;;1.40;;
35540;SDS011;21650;48.840;9.162;2023-02-18T10:21:19;7.40;;;1.67;;
35540;SDS011;21650;48.840;9.162;2023-02-18T10:24:00;4.23;;;1.60;;
35540;SDS011;21650;48.840;9.162;2023-02-18T10:26:44;3.37;;;1.40;;
35540;SDS011;21650;48.840;9.162;2023-02-18T10:29:15;2.77;;;1.30;;
35540;SDS011;21650;48.840;9.162;2023-02-18T10:31:43;1.40;;;1.23;;
35540;SDS011;21650;48.840;9.162;2023-02-18T10:37:19;0.97;;;0.80;;
35540;SDS011;21650;48.840;9.162;2023-02-18T10:50:51;2.77;;;1.10;;
35540;SDS011;21650;48.840;9.162;2023-02-18T10:53:20;1.40;;;1.00;;
35540;SDS011;21650;48.840;9.162;2023-02-18T10:55:59;2.23;;;1.23;;
35540;SDS011;21650;48.840;9.162;2023-02-18T11:00:50;1.20;;;0.70;;
35540;SDS011;21650;48.840;9.162;2023-02-18T11:03:17;1.53;;;0.90;;
35540;SDS011;21650;48.840;9.162;2023-02-18T11:05:45;0.90;;;0.83;;
35540;SDS011;21650;48.840;9.162;2023-02-18T11:08:15;4.23;;;1.13;;
35540;SDS011;21650;48.840;9.162;2023-02-18T11:10:47;2.07;;;0.67;;
35540;SDS011;21650;48.840;9.162;2023-02-18T11:13:14;2.80;;;0.90;;
35540;SDS011;21650;48.840;9.162;2023-02-18T11:16:35;1.10;;;0.80;;
35540;SDS011;21650;48.840;9.162;2023-02-18T11:18:40;1.17;;;0.87;;
35540;SDS011;21650;48.840;9.162;2023-02-18T11:21:25;0.80;;;0.73;;
35540;SDS011;21650;48.840;9.162;2023-02-18T11:23:55;2.30;;;0.67;;
35540;SDS011;21650;48.840;9.162;2023-02-18T11:26:26;1.77;;;0.87;;
35540;SDS011;21650;48.840;9.162;2023-02-18T11:29:39;1.50;;;1.00;;
35540;SDS011;21650;48.840;9.162;2023-02-18T11:31:46;0.77;;;0.70;;
35540;SDS011;21650;48.840;9.162;2023-02-18T11:34:14;0.90;;;0.70;;
35540;SDS011;21650;48.840;9.162;2023-02-18T11:36:43;3.17;;;1.00;;
35540;SDS011;21650;48.840;9.162;2023-02-18T11:41:57;1.20;;;0.90;;
35540;SDS011;21650;48.840;9.162;2023-02-18T11:44:33;1.73;;;1.03;;
35540;SDS011;21650;48.840;9.162;2023-02-18T11:49:37;1.13;;;1.03;;
35540;SDS011;21650;48.840;9.162;2023-02-18T11:52:17;3.07;;;1.13;;
35540;SDS011;21650;48.840;9.162;2023-02-18T11:54:57;1.37;;;0.87;;
35540;SDS011;21650;48.840;9.162;2023-02-18T11:57:25;1.43;;;0.80;;
35540;SDS011;21650;48.840;9.162;2023-02-18T11:59:52;1.30;;;1.00;;
35540;SDS011;21650;48.840;9.162;2023-02-18T12:07:34;1.60;;;1.00;;
35540;SDS011;21650;48.840;9.162;2023-02-18T12:10:10;2.50;;;0.80;;
35540;SDS011;21650;48.840;9.162;2023-02-18T12:13:02;1.70;;;1.10;;
35540;SDS011;21650;48.840;9.162;2023-02-18T12:18:38;2.70;;;1.30;;
35540;SDS011;21650;48.840;9.162;2023-02-18T12:24:16;5.93;;;0.97;;
35540;SDS011;21650;48.840;9.162;2023-02-18T12:27:04;1.17;;;1.00;;
35540;SDS011;21650;48.840;9.162;2023-02-18T12:29:49;1.17;;;0.80;;
35540;SDS011;21650;48.840;9.162;2023-02-18T12:57:19;2.40;;;1.40;;
35540;SDS011;21650;48.840;9.162;2023-02-18T13:05:17;2.40;;;1.40;;
35540;SDS011;21650;48.840;9.162;2023-02-18T13:16:38;2.70;;;1.37;;
35540;SDS011;21650;48.840;9.162;2023-02-18T13:19:18;2.10;;;1.40;;
35540;SDS011;21650;48.840;9.162;2023-02-18T13:22:09;2.03;;;1.67;;
35540;SDS011;21650;48.840;9.162;2023-02-18T13:24:39;2.73;;;1.60;;
35540;SDS011;21650;48.840;9.162;2023-02-18T13:27:20;1.90;;;1.60;;
35540;SDS011;21650;48.840;9.162;2023-02-18T13:35:24;2.53;;;1.20;;
35540;SDS011;21650;48.840;9.162;2023-02-18T13:40:25;2.23;;;1.30;;
35540;SDS011;21650;48.840;9.162;2023-02-18T13:42:54;2.17;;;1.40;;
35540;SDS011;21650;48.840;9.162;2023-02-18T13:45:30;3.73;;;1.83;;
35540;SDS011;21650;48.840;9.162;2023-02-18T13:47:57;3.30;;;2.10;;
35540;SDS011;21650;48.840;9.162;2023-02-18T13:50:26;2.77;;;1.43;;
35540;SDS011;21650;48.840;9.162;2023-02-18T14:00:55;4.77;;;1.87;;
35540;SDS011;21650;48.840;9.162;2023-02-18T14:05:54;4.93;;;1.30;;
35540;SDS011;21650;48.840;9.162;2023-02-18T14:08:42;2.57;;;1.50;;
35540;SDS011;21650;48.840;9.162;2023-02-18T14:13:42;1.83;;;1.10;;
35540;SDS011;21650;48.840;9.162;2023-02-18T14:16:13;1.57;;;1.37;;
35540;SDS011;21650;48.840;9.162;2023-02-18T14:21:17;2.27;;;1.57;;
35540;SDS011;21650;48.840;9.162;2023-02-18T14:26:54;3.07;;;1.60;;
35540;SDS011;21650;48.840;9.162;2023-02-18T14:29:23;2.40;;;1.53;;
35540;SDS011;21650;48.840;9.162;2023-02-18T14:32:02;2.83;;;1.77;;
35540;SDS011;21650;48.840;9.162;2023-02-18T14:37:28;2.23;;;1.43;;
35540;SDS011;21650;48.840;9.162;2023-02-18T14:40:03;2.30;;;1.40;;
35540;SDS011;21650;48.840;9.162;2023-02-18T14:50:47;1.67;;;1.43;;
35540;SDS011;21650;48.840;9.162;2023-02-18T14:53:14;7.33;;;1.60;;
35540;SDS011;21650;48.840;9.162;2023-02-18T14:55:45;1.90;;;1.40;;
35540;SDS011;21650;48.840;9.162;2023-02-18T14:58:29;3.43;;;1.60;;
35540;SDS011;21650;48.840;9.162;2023-02-18T15:01:04;1.77;;;1.53;;
35540;SDS011;21650;48.840;9.162;2023-02-18T15:03:43;4.30;;;1.57;;
35540;SDS011;21650;48.840;9.162;2023-02-18T15:06:20;1.53;;;1.30;;
35540;SDS011;21650;48.840;9.162;2023-02-18T15:08:52;1.83;;;1.37;;
35540;SDS011;21650;48.840;9.162;2023-02-18T15:11:18;2.67;;;1.50;;
35540;SDS011;21650;48.840;9.162;2023-02-18T15:13:48;2.03;;;1.60;;
35540;SDS011;21650;48.840;9.162;2023-02-18T15:16:24;1.90;;;1.47;;
35540;SDS011;21650;48.840;9.162;2023-02-18T15:18:55;3.47;;;1.63;;
35540;SDS011;21650;48.840;9.162;2023-02-18T15:21:28;1.63;;;1.47;;
35540;SDS011;21650;48.840;9.162;2023-02-18T15:24:07;2.80;;;1.23;;
35540;SDS011;21650;48.840;9.162;2023-02-18T15:26:41;1.83;;;1.60;;
35540;SDS011;21650;48.840;9.162;2023-02-18T15:29:13;1.87;;;1.57;;
35540;SDS011;21650;48.840;9.162;2023-02-18T15:31:42;3.60;;;1.60;;
35540;SDS011;21650;48.840;9.162;2023-02-18T15:36:52;2.10;;;1.93;;
35540;SDS011;21650;48.840;9.162;2023-02-18T15:39:18;2.70;;;1.40;;
35540;SDS011;21650;48.840;9.162;2023-02-18T15:41:44;4.00;;;1.67;;
35540;SDS011;21650;48.840;9.162;2023-02-18T15:44:21;1.57;;;1.30;;
35540;SDS011;21650;48.840;9.162;2023-02-18T15:46:49;1.93;;;1.40;;
35540;SDS011;21650;48.840;9.162;2023-02-18T15:49:16;2.13;;;1.73;;
35540;SDS011;21650;48.840;9.162;2023-02-18T15:51:45;1.60;;;1.27;;
35540;SDS011;21650;48.840;9.162;2023-02-18T15:54:19;2.63;;;1.63;;
35540;SDS011;21650;48.840;9.162;2023-02-18T15:56:48;2.13;;;1.47;;
35540;SDS011;21650;48.840;9.162;2023-02-18T16:01:53;1.70;;;1.40;;
35540;SDS011;21650;48.840;9.162;2023-02-18T16:04:39;1.60;;;1.50;;
35540;SDS011;21650;48.840;9.162;2023-02-18T16:07:19;1.67;;;1.43;;
35540;SDS011;21650;48.840;9.162;2023-02-18T16:09:47;3.40;;;1.77;;
35540;SDS011;21650;48.840;9.162;2023-02-18T16:12:36;2.47;;;1.67;;
35540;SDS011;21650;48.840;9.162;2023-02-18T16:15:01;2.40;;;2.03;;
35540;SDS011;21650;48.840;9.162;2023-02-18T16:17:28;2.50;;;1.80;;
35540;SDS011;21650;48.840;9.162;2023-02-18T16:19:58;2.23;;;1.60;;
35540;SDS011;21650;48.840;9.162;2023-02-18T16:24:56;5.47;;;1.73;;
35540;SDS011;21650;48.840;9.162;2023-02-18T16:27:34;6.40;;;2.23;;
35540;SDS011;21650;48.840;9.162;2023-02-18T16:30:02;1.90;;;1.63;;
35540;SDS011;21650;48.840;9.162;2023-02-18T16:32:49;3.07;;;1.70;;
35540;SDS011;21650;48.840;9.162;2023-02-18T16:35:16;2.20;;;1.53;;
35540;SDS011;21650;48.840;9.162;2023-02-18T16:37:42;2.07;;;1.50;;
35540;SDS011;21650;48.840;9.162;2023-02-18T16:40:23;3.67;;;1.63;;
35540;SDS011;21650;48.840;9.162;2023-02-18T16:42:49;2.23;;;1.60;;
35540;SDS011;21650;48.840;9.162;2023-02-18T16:45:16;2.37;;;1.87;;
35540;SDS011;21650;48.840;9.162;2023-02-18T16:47:43;3.10;;;1.50;;
35540;SDS011;21650;48.840;9.162;2023-02-18T16:50:20;2.00;;;1.70;;
35540;SDS011;21650;48.840;9.162;2023-02-18T16:52:46;1.73;;;1.63;;
35540;SDS011;21650;48.840;9.162;2023-02-18T16:55:16;2.83;;;2.43;;
35540;SDS011;21650;48.840;9.162;2023-02-18T16:57:44;3.07;;;1.80;;
35540;SDS011;21650;48.840;9.162;2023-02-18T17:00:11;2.77;;;1.80;;
35540;SDS011;21650;48.840;9.162;2023-02-18T17:02:37;3.83;;;1.60;;
35540;SDS011;21650;48.840;9.162;2023-02-18T17:05:03;2.63;;;1.60;;
35540;SDS011;21650;48.840;9.162;2023-02-18T17:07:28;1.63;;;1.53;;
35540;SDS011;21650;48.840;9.162;2023-02-18T17:09:56;3.50;;;1.63;;
35540;SDS011;21650;48.840;9.162;2023-02-18T17:12:23;2.13;;;1.70;;
35540;SDS011;21650;48.840;9.162;2023-02-18T17:14:49;2.23;;;1.80;;
35540;SDS011;21650;48.840;9.162;2023-02-18T17:17:14;2.00;;;1.80;;
35540;SDS011;21650;48.840;9.162;2023-02-18T17:19:49;2.43;;;2.17;;
35540;SDS011;21650;48.840;9.162;2023-02-18T17:22:14;2.33;;;1.60;;
35540;SDS011;21650;48.840;9.162;2023-02-18T17:24:40;2.07;;;1.60;;
35540;SDS011;21650;48.840;9.162;2023-02-18T17:27:07;3.30;;;1.80;;
35540;SDS011;21650;48.840;9.162;2023-02-18T17:29:34;4.17;;;1.90;;
35540;SDS011;21650;48.840;9.162;2023-02-18T17:32:00;1.90;;;1.60;;
35540;SDS011;21650;48.840;9.162;2023-02-18T17:34:27;2.67;;;1.90;;
35540;SDS011;21650;48.840;9.162;2023-02-18T17:36:54;3.57;;;1.63;;
35540;SDS011;21650;48.840;9.162;2023-02-18T17:39:20;6.93;;;2.63;;
35540;SDS011;21650;48.840;9.162;2023-02-18T17:41:46;2.17;;;1.77;;